sensor_id;sensor_type;location;lat;lon;timestamp;temperature;humidity
16140;DHT22;8175;49.326;12.690;2023-02-26T00:00:30;-3.30;99.90
16140;DHT22;8175;49.326;12.690;2023-02-26T00:02:55;-3.30;99.90
16140;DHT22;8175;49.326;12.690;2023-02-26T00:05:21;-3.20;99.90
16140;DHT22;8175;49.326;12.690;2023-02-26T00:07:47;-3.20;99.90
16140;DHT22;8175;49.326;12.690;2023-02-26T00:10:13;-3.10;99.90
16140;DHT22;8175;49.326;12.690;2023-02-26T00:12:41;-3.00;99.90
16140;DHT22;8175;49.326;12.690;2023-02-26T00:15:09;-3.00;99.90
16140;DHT22;8175;49.326;12.690;2023-02-26T00:20:28;-2.80;99.90
16140;DHT22;8175;49.326;12.690;2023-02-26T00:22:53;-2.80;99.90
16140;DHT22;8175;49.326;12.690;2023-02-26T00:25:19;-2.80;99.90
16140;DHT22;8175;49.326;12.690;2023-02-26T00:27:45;-2.80;99.90
16140;DHT22;8175;49.326;12.690;2023-02-26T00:30:11;-2.80;99.90
16140;DHT22;8175;49.326;12.690;2023-02-26T00:32:37;-2.70;99.90
16140;DHT22;8175;49.326;12.690;2023-02-26T00:35:06;-2.70;99.90
16140;DHT22;8175;49.326;12.690;2023-02-26T00:37:55;-2.70;99.90
16140;DHT22;8175;49.326;12.690;2023-02-26T00:42:48;-2.70;99.90
16140;DHT22;8175;49.326;12.690;2023-02-26T00:45:14;-2.70;99.90
16140;DHT22;8175;49.326;12.690;2023-02-26T00:47:48;-2.80;99.90
16140;DHT22;8175;49.326;12.690;2023-02-26T00:50:23;-2.80;99.90
16140;DHT22;8175;49.326;12.690;2023-02-26T00:52:56;-2.80;99.90
16140;DHT22;8175;49.326;12.690;2023-02-26T00:55:23;-2.90;99.90
16140;DHT22;8175;49.326;12.690;2023-02-26T00:57:49;-3.00;99.90
16140;DHT22;8175;49.326;12.690;2023-02-26T01:00:15;-3.10;99.90
16140;DHT22;8175;49.326;12.690;2023-02-26T01:02:41;-3.10;99.90
16140;DHT22;8175;49.326;12.690;2023-02-26T01:05:07;-3.10;99.90
16140;DHT22;8175;49.326;12.690;2023-02-26T01:07:41;-3.10;99.90
16140;DHT22;8175;49.326;12.690;2023-02-26T01:10:10;-3.00;99.90
16140;DHT22;8175;49.326;12.690;2023-02-26T01:12:36;-3.00;99.90
16140;DHT22;8175;49.326;12.690;2023-02-26T01:15:03;-3.00;99.90
16140;DHT22;8175;49.326;12.690;2023-02-26T01:17:35;-3.00;99.90
16140;DHT22;8175;49.326;12.690;2023-02-26T01:22:40;-3.00;99.90
16140;DHT22;8175;49.326;12.690;2023-02-26T01:25:15;-2.90;99.90
16140;DHT22;8175;49.326;12.690;2023-02-26T01:27:42;-3.00;99.90
16140;DHT22;8175;49.326;12.690;2023-02-26T01:30:09;-3.00;99.90
16140;DHT22;8175;49.326;12.690;2023-02-26T01:32:48;-3.00;99.90
16140;DHT22;8175;49.326;12.690;2023-02-26T01:35:45;-3.00;99.90
16140;DHT22;8175;49.326;12.690;2023-02-26T01:43:33;-3.10;99.90
16140;DHT22;8175;49.326;12.690;2023-02-26T01:46:05;-3.10;99.90
16140;DHT22;8175;49.326;12.690;2023-02-26T01:48:49;-3.10;99.90
16140;DHT22;8175;49.326;12.690;2023-02-26T01:51:15;-3.20;99.90
16140;DHT22;8175;49.326;12.690;2023-02-26T01:53:40;-3.20;99.90
16140;DHT22;8175;49.326;12.690;2023-02-26T01:56:17;-3.20;99.90
16140;DHT22;8175;49.326;12.690;2023-02-26T01:58:46;-3.10;99.90
16140;DHT22;8175;49.326;12.690;2023-02-26T02:01:13;-3.10;99.90
16140;DHT22;8175;49.326;12.690;2023-02-26T02:03:41;-3.00;99.90
16140;DHT22;8175;49.326;12.690;2023-02-26T02:06:17;-2.90;99.90
16140;DHT22;8175;49.326;12.690;2023-02-26T02:08:44;-2.90;99.90
16140;DHT22;8175;49.326;12.690;2023-02-26T02:11:11;-2.90;99.90
16140;DHT22;8175;49.326;12.690;2023-02-26T02:16:22;-2.90;99.90
16140;DHT22;8175;49.326;12.690;2023-02-26T02:27:44;-3.10;99.90
16140;DHT22;8175;49.326;12.690;2023-02-26T02:30:34;-3.10;99.90
16140;DHT22;8175;49.326;12.690;2023-02-26T02:33:06;-3.10;99.90
16140;DHT22;8175;49.326;12.690;2023-02-26T02:35:45;-3.10;99.90
16140;DHT22;8175;49.326;12.690;2023-02-26T02:38:27;-3.10;99.90
16140;DHT22;8175;49.326;12.690;2023-02-26T02:41:11;-3.10;99.90
16140;DHT22;8175;49.326;12.690;2023-02-26T02:43:40;-3.20;99.90
16140;DHT22;8175;49.326;12.690;2023-02-26T02:46:11;-3.20;99.90
16140;DHT22;8175;49.326;12.690;2023-02-26T02:48:55;-3.10;99.90
16140;DHT22;8175;49.326;12.690;2023-02-26T02:51:53;-3.10;99.90
16140;DHT22;8175;49.326;12.690;2023-02-26T02:55:12;-3.10;99.90
16140;DHT22;8175;49.326;12.690;2023-02-26T02:57:35;-3.10;99.90
16140;DHT22;8175;49.326;12.690;2023-02-26T03:00:08;-3.10;99.90
16140;DHT22;8175;49.326;12.690;2023-02-26T03:02:58;-3.10;99.90
16140;DHT22;8175;49.326;12.690;2023-02-26T03:05:24;-3.10;99.90
16140;DHT22;8175;49.326;12.690;2023-02-26T03:07:56;-3.10;99.90
16140;DHT22;8175;49.326;12.690;2023-02-26T03:10:23;-3.10;99.90
16140;DHT22;8175;49.326;12.690;2023-02-26T03:12:49;-3.10;99.90
16140;DHT22;8175;49.326;12.690;2023-02-26T03:15:15;-3.10;99.90
16140;DHT22;8175;49.326;12.690;2023-02-26T03:17:56;-3.10;99.90
16140;DHT22;8175;49.326;12.690;2023-02-26T03:20:33;-3.10;99.90
16140;DHT22;8175;49.326;12.690;2023-02-26T03:23:12;-3.20;99.90
16140;DHT22;8175;49.326;12.690;2023-02-26T03:26:32;-3.20;99.90
16140;DHT22;8175;49.326;12.690;2023-02-26T03:29:19;-3.20;99.90
16140;DHT22;8175;49.326;12.690;2023-02-26T03:31:55;-3.30;99.90
16140;DHT22;8175;49.326;12.690;2023-02-26T03:34:26;-3.30;99.90
16140;DHT22;8175;49.326;12.690;2023-02-26T03:36:58;-3.30;99.90
16140;DHT22;8175;49.326;12.690;2023-02-26T03:39:32;-3.30;99.90
16140;DHT22;8175;49.326;12.690;2023-02-26T03:42:18;-3.30;99.90
16140;DHT22;8175;49.326;12.690;2023-02-26T03:44:52;-3.40;99.90
16140;DHT22;8175;49.326;12.690;2023-02-26T03:47:19;-3.40;99.90
16140;DHT22;8175;49.326;12.690;2023-02-26T03:49:51;-3.40;99.90
16140;DHT22;8175;49.326;12.690;2023-02-26T03:52:20;-3.50;99.90
16140;DHT22;8175;49.326;12.690;2023-02-26T03:55:07;-3.50;99.90
16140;DHT22;8175;49.326;12.690;2023-02-26T03:57:34;-3.50;99.90
16140;DHT22;8175;49.326;12.690;2023-02-26T04:00:00;-3.50;99.90
16140;DHT22;8175;49.326;12.690;2023-02-26T04:02:36;-3.50;99.90
16140;DHT22;8175;49.326;12.690;2023-02-26T04:05:11;-3.50;99.90
16140;DHT22;8175;49.326;12.690;2023-02-26T04:07:38;-3.60;99.90
16140;DHT22;8175;49.326;12.690;2023-02-26T04:10:06;-3.70;99.90
16140;DHT22;8175;49.326;12.690;2023-02-26T04:12:33;-3.70;99.90
16140;DHT22;8175;49.326;12.690;2023-02-26T04:14:58;-3.70;99.90
16140;DHT22;8175;49.326;12.690;2023-02-26T04:17:24;-3.70;99.90
16140;DHT22;8175;49.326;12.690;2023-02-26T04:19:50;-3.80;99.90
16140;DHT22;8175;49.326;12.690;2023-02-26T04:22:15;-3.90;99.90
16140;DHT22;8175;49.326;12.690;2023-02-26T04:24:41;-4.00;99.90
16140;DHT22;8175;49.326;12.690;2023-02-26T04:27:07;-3.90;99.90
16140;DHT22;8175;49.326;12.690;2023-02-26T04:29:32;-4.10;99.90
16140;DHT22;8175;49.326;12.690;2023-02-26T04:31:58;-4.20;99.90
16140;DHT22;8175;49.326;12.690;2023-02-26T04:34:25;-4.20;99.90
16140;DHT22;8175;49.326;12.690;2023-02-26T04:36:50;-4.30;99.90
16140;DHT22;8175;49.326;12.690;2023-02-26T04:39:16;-4.30;99.90
16140;DHT22;8175;49.326;12.690;2023-02-26T04:41:42;-4.00;99.90
16140;DHT22;8175;49.326;12.690;2023-02-26T04:44:07;-4.00;99.90
16140;DHT22;8175;49.326;12.690;2023-02-26T04:46:33;-4.20;99.90
16140;DHT22;8175;49.326;12.690;2023-02-26T04:48:59;-4.30;99.90
16140;DHT22;8175;49.326;12.690;2023-02-26T04:51:24;-4.20;99.90
16140;DHT22;8175;49.326;12.690;2023-02-26T04:53:50;-4.20;99.90
16140;DHT22;8175;49.326;12.690;2023-02-26T04:56:16;-4.20;99.90
16140;DHT22;8175;49.326;12.690;2023-02-26T04:58:42;-4.20;99.90
16140;DHT22;8175;49.326;12.690;2023-02-26T05:01:07;-4.10;99.90
16140;DHT22;8175;49.326;12.690;2023-02-26T05:03:33;-4.20;99.90
16140;DHT22;8175;49.326;12.690;2023-02-26T05:05:59;-4.10;99.90
16140;DHT22;8175;49.326;12.690;2023-02-26T05:08:24;-4.10;99.90
16140;DHT22;8175;49.326;12.690;2023-02-26T05:10:51;-4.10;99.90
16140;DHT22;8175;49.326;12.690;2023-02-26T05:13:17;-4.00;99.90
16140;DHT22;8175;49.326;12.690;2023-02-26T05:15:43;-4.10;99.90
16140;DHT22;8175;49.326;12.690;2023-02-26T05:18:09;-4.10;99.90
16140;DHT22;8175;49.326;12.690;2023-02-26T05:20:34;-4.10;99.90
16140;DHT22;8175;49.326;12.690;2023-02-26T05:23:00;-4.10;99.90
16140;DHT22;8175;49.326;12.690;2023-02-26T05:25:26;-4.20;99.90
16140;DHT22;8175;49.326;12.690;2023-02-26T05:27:51;-4.20;99.90
16140;DHT22;8175;49.326;12.690;2023-02-26T05:30:17;-4.20;99.90
16140;DHT22;8175;49.326;12.690;2023-02-26T05:32:43;-4.10;99.90
16140;DHT22;8175;49.326;12.690;2023-02-26T05:35:09;-4.10;99.90
16140;DHT22;8175;49.326;12.690;2023-02-26T05:37:35;-4.20;99.90
16140;DHT22;8175;49.326;12.690;2023-02-26T05:40:03;-4.10;99.90
16140;DHT22;8175;49.326;12.690;2023-02-26T05:42:28;-4.10;99.90
16140;DHT22;8175;49.326;12.690;2023-02-26T05:44:54;-4.00;99.90
16140;DHT22;8175;49.326;12.690;2023-02-26T05:47:20;-4.00;99.90
16140;DHT22;8175;49.326;12.690;2023-02-26T05:49:45;-3.90;99.90
16140;DHT22;8175;49.326;12.690;2023-02-26T05:52:11;-3.80;99.90
16140;DHT22;8175;49.326;12.690;2023-02-26T05:54:37;-3.80;99.90
16140;DHT22;8175;49.326;12.690;2023-02-26T05:57:02;-3.70;99.90
16140;DHT22;8175;49.326;12.690;2023-02-26T05:59:28;-3.70;99.90
16140;DHT22;8175;49.326;12.690;2023-02-26T06:01:53;-3.70;99.90
16140;DHT22;8175;49.326;12.690;2023-02-26T06:04:19;-3.60;99.90
16140;DHT22;8175;49.326;12.690;2023-02-26T06:06:45;-3.70;99.90
16140;DHT22;8175;49.326;12.690;2023-02-26T06:09:10;-3.70;99.90
16140;DHT22;8175;49.326;12.690;2023-02-26T06:11:36;-3.70;99.90
16140;DHT22;8175;49.326;12.690;2023-02-26T06:14:04;-3.70;99.90
16140;DHT22;8175;49.326;12.690;2023-02-26T06:16:29;-3.70;99.90
16140;DHT22;8175;49.326;12.690;2023-02-26T06:18:55;-3.70;99.90
16140;DHT22;8175;49.326;12.690;2023-02-26T06:21:20;-3.60;99.90
16140;DHT22;8175;49.326;12.690;2023-02-26T06:23:46;-3.60;99.90
16140;DHT22;8175;49.326;12.690;2023-02-26T06:26:12;-3.50;99.90
16140;DHT22;8175;49.326;12.690;2023-02-26T06:28:38;-3.40;99.90
16140;DHT22;8175;49.326;12.690;2023-02-26T06:31:03;-3.30;99.90
16140;DHT22;8175;49.326;12.690;2023-02-26T06:33:29;-3.40;99.90
16140;DHT22;8175;49.326;12.690;2023-02-26T06:35:55;-3.30;99.90
16140;DHT22;8175;49.326;12.690;2023-02-26T06:38:22;-3.30;99.90
16140;DHT22;8175;49.326;12.690;2023-02-26T06:40:48;-3.20;99.90
16140;DHT22;8175;49.326;12.690;2023-02-26T06:43:14;-3.20;99.90
16140;DHT22;8175;49.326;12.690;2023-02-26T06:45:39;-3.20;99.90
16140;DHT22;8175;49.326;12.690;2023-02-26T06:48:05;-3.10;99.90
16140;DHT22;8175;49.326;12.690;2023-02-26T06:50:31;-3.20;99.90
16140;DHT22;8175;49.326;12.690;2023-02-26T06:52:56;-3.10;99.90
16140;DHT22;8175;49.326;12.690;2023-02-26T06:55:22;-3.00;99.90
16140;DHT22;8175;49.326;12.690;2023-02-26T06:57:52;-2.90;99.90
16140;DHT22;8175;49.326;12.690;2023-02-26T07:00:18;-2.80;99.90
16140;DHT22;8175;49.326;12.690;2023-02-26T07:02:44;-2.70;99.90
16140;DHT22;8175;49.326;12.690;2023-02-26T07:05:09;-2.60;99.90
16140;DHT22;8175;49.326;12.690;2023-02-26T07:07:35;-2.60;99.90
16140;DHT22;8175;49.326;12.690;2023-02-26T07:10:00;-2.50;99.90
16140;DHT22;8175;49.326;12.690;2023-02-26T07:12:26;-2.40;99.90
16140;DHT22;8175;49.326;12.690;2023-02-26T07:14:52;-2.40;99.90
16140;DHT22;8175;49.326;12.690;2023-02-26T07:17:17;-2.30;99.90
16140;DHT22;8175;49.326;12.690;2023-02-26T07:19:50;-2.30;99.90
16140;DHT22;8175;49.326;12.690;2023-02-26T07:22:17;-2.20;99.90
16140;DHT22;8175;49.326;12.690;2023-02-26T07:24:43;-2.20;99.90
16140;DHT22;8175;49.326;12.690;2023-02-26T07:27:09;-2.20;99.90
16140;DHT22;8175;49.326;12.690;2023-02-26T07:29:35;-2.10;99.90
16140;DHT22;8175;49.326;12.690;2023-02-26T07:32:02;-2.00;99.90
16140;DHT22;8175;49.326;12.690;2023-02-26T07:34:28;-2.00;99.90
16140;DHT22;8175;49.326;12.690;2023-02-26T07:36:54;-1.90;99.90
16140;DHT22;8175;49.326;12.690;2023-02-26T07:39:19;-1.80;99.90
16140;DHT22;8175;49.326;12.690;2023-02-26T07:41:45;-1.60;99.90
16140;DHT22;8175;49.326;12.690;2023-02-26T07:44:12;-1.50;99.90
16140;DHT22;8175;49.326;12.690;2023-02-26T07:46:37;-1.10;99.90
16140;DHT22;8175;49.326;12.690;2023-02-26T07:49:03;-0.50;99.90
16140;DHT22;8175;49.326;12.690;2023-02-26T07:51:29;-0.20;99.90
16140;DHT22;8175;49.326;12.690;2023-02-26T07:53:54;-0.40;99.90
16140;DHT22;8175;49.326;12.690;2023-02-26T07:56:20;-0.70;99.90
16140;DHT22;8175;49.326;12.690;2023-02-26T07:58:46;-0.70;99.90
16140;DHT22;8175;49.326;12.690;2023-02-26T08:01:12;-0.80;99.90
16140;DHT22;8175;49.326;12.690;2023-02-26T08:03:38;-1.20;99.90
16140;DHT22;8175;49.326;12.690;2023-02-26T08:06:04;-1.50;99.90
16140;DHT22;8175;49.326;12.690;2023-02-26T08:08:30;-1.50;99.90
16140;DHT22;8175;49.326;12.690;2023-02-26T08:10:59;-1.50;99.90
16140;DHT22;8175;49.326;12.690;2023-02-26T08:13:24;-1.20;99.90
16140;DHT22;8175;49.326;12.690;2023-02-26T08:15:50;-1.20;99.90
16140;DHT22;8175;49.326;12.690;2023-02-26T08:18:16;-1.20;99.90
16140;DHT22;8175;49.326;12.690;2023-02-26T08:20:41;-0.90;99.90
16140;DHT22;8175;49.326;12.690;2023-02-26T08:23:07;-0.70;99.90
16140;DHT22;8175;49.326;12.690;2023-02-26T08:25:33;-0.60;99.90
16140;DHT22;8175;49.326;12.690;2023-02-26T08:27:58;-0.70;99.90
16140;DHT22;8175;49.326;12.690;2023-02-26T08:30:25;-0.50;99.90
16140;DHT22;8175;49.326;12.690;2023-02-26T08:32:51;-0.50;99.90
16140;DHT22;8175;49.326;12.690;2023-02-26T08:35:16;-0.20;99.90
16140;DHT22;8175;49.326;12.690;2023-02-26T08:37:42;0.30;99.90
16140;DHT22;8175;49.326;12.690;2023-02-26T08:40:09;0.40;99.90
16140;DHT22;8175;49.326;12.690;2023-02-26T08:42:35;0.30;99.90
16140;DHT22;8175;49.326;12.690;2023-02-26T08:45:01;0.20;99.90
16140;DHT22;8175;49.326;12.690;2023-02-26T08:47:27;0.50;99.90
16140;DHT22;8175;49.326;12.690;2023-02-26T08:49:52;0.20;99.90
16140;DHT22;8175;49.326;12.690;2023-02-26T08:52:19;0.30;99.90
16140;DHT22;8175;49.326;12.690;2023-02-26T08:54:45;0.10;99.90
16140;DHT22;8175;49.326;12.690;2023-02-26T08:57:10;-0.10;99.90
16140;DHT22;8175;49.326;12.690;2023-02-26T08:59:36;-0.30;99.90
16140;DHT22;8175;49.326;12.690;2023-02-26T09:02:02;-0.50;99.90
16140;DHT22;8175;49.326;12.690;2023-02-26T09:04:27;-0.90;99.90
16140;DHT22;8175;49.326;12.690;2023-02-26T09:06:54;-1.20;99.90
16140;DHT22;8175;49.326;12.690;2023-02-26T09:09:19;-1.20;99.90
16140;DHT22;8175;49.326;12.690;2023-02-26T09:11:45;-1.10;99.90
16140;DHT22;8175;49.326;12.690;2023-02-26T09:14:11;-1.30;99.90
16140;DHT22;8175;49.326;12.690;2023-02-26T09:16:36;-0.90;99.90
16140;DHT22;8175;49.326;12.690;2023-02-26T09:19:04;-0.10;99.90
16140;DHT22;8175;49.326;12.690;2023-02-26T09:21:30;0.60;99.90
16140;DHT22;8175;49.326;12.690;2023-02-26T09:23:56;0.70;99.90
16140;DHT22;8175;49.326;12.690;2023-02-26T09:26:21;0.80;99.90
16140;DHT22;8175;49.326;12.690;2023-02-26T09:28:47;0.60;99.90
16140;DHT22;8175;49.326;12.690;2023-02-26T09:31:13;1.10;99.90
16140;DHT22;8175;49.326;12.690;2023-02-26T09:33:38;1.00;99.90
16140;DHT22;8175;49.326;12.690;2023-02-26T09:36:04;1.00;99.90
16140;DHT22;8175;49.326;12.690;2023-02-26T09:38:30;1.90;99.90
16140;DHT22;8175;49.326;12.690;2023-02-26T09:41:03;2.20;99.90
16140;DHT22;8175;49.326;12.690;2023-02-26T09:46:47;3.40;99.90
16140;DHT22;8175;49.326;12.690;2023-02-26T09:55:00;3.00;99.90
16140;DHT22;8175;49.326;12.690;2023-02-26T09:57:35;2.90;99.90
16140;DHT22;8175;49.326;12.690;2023-02-26T10:00:32;2.00;99.90
16140;DHT22;8175;49.326;12.690;2023-02-26T10:08:23;0.30;99.90
16140;DHT22;8175;49.326;12.690;2023-02-26T10:11:06;0.30;99.90
16140;DHT22;8175;49.326;12.690;2023-02-26T10:13:46;0.20;99.90
16140;DHT22;8175;49.326;12.690;2023-02-26T10:16:27;0.40;99.90
16140;DHT22;8175;49.326;12.690;2023-02-26T10:19:03;-0.20;99.90
16140;DHT22;8175;49.326;12.690;2023-02-26T10:21:41;-0.20;99.90
16140;DHT22;8175;49.326;12.690;2023-02-26T10:24:23;-0.30;99.90
16140;DHT22;8175;49.326;12.690;2023-02-26T10:26:57;-0.40;99.90
16140;DHT22;8175;49.326;12.690;2023-02-26T10:29:44;-0.20;99.90
16140;DHT22;8175;49.326;12.690;2023-02-26T10:32:44;0.70;99.90
16140;DHT22;8175;49.326;12.690;2023-02-26T10:35:15;3.70;99.90
16140;DHT22;8175;49.326;12.690;2023-02-26T10:37:57;6.10;99.90
16140;DHT22;8175;49.326;12.690;2023-02-26T10:40:37;5.00;99.90
16140;DHT22;8175;49.326;12.690;2023-02-26T10:43:18;3.30;99.90
16140;DHT22;8175;49.326;12.690;2023-02-26T10:46:06;1.10;99.90
16140;DHT22;8175;49.326;12.690;2023-02-26T10:51:39;-0.80;99.90
16140;DHT22;8175;49.326;12.690;2023-02-26T10:54:23;-0.80;99.90
16140;DHT22;8175;49.326;12.690;2023-02-26T10:56:50;-0.80;99.90
16140;DHT22;8175;49.326;12.690;2023-02-26T10:59:17;-0.80;99.90
16140;DHT22;8175;49.326;12.690;2023-02-26T11:01:43;-0.30;99.90
16140;DHT22;8175;49.326;12.690;2023-02-26T11:04:14;-0.20;99.90
16140;DHT22;8175;49.326;12.690;2023-02-26T11:07:01;0.60;99.90
16140;DHT22;8175;49.326;12.690;2023-02-26T11:09:39;1.10;99.90
16140;DHT22;8175;49.326;12.690;2023-02-26T11:12:12;1.50;99.90
16140;DHT22;8175;49.326;12.690;2023-02-26T11:14:39;1.50;99.90
16140;DHT22;8175;49.326;12.690;2023-02-26T11:17:43;2.00;99.90
16140;DHT22;8175;49.326;12.690;2023-02-26T11:20:04;4.30;99.90
16140;DHT22;8175;49.326;12.690;2023-02-26T11:22:46;4.90;99.90
16140;DHT22;8175;49.326;12.690;2023-02-26T11:25:16;5.30;99.90
16140;DHT22;8175;49.326;12.690;2023-02-26T11:27:42;4.40;99.90
16140;DHT22;8175;49.326;12.690;2023-02-26T11:30:20;3.40;99.90
16140;DHT22;8175;49.326;12.690;2023-02-26T11:32:50;2.70;99.90
16140;DHT22;8175;49.326;12.690;2023-02-26T11:35:17;1.10;99.90
16140;DHT22;8175;49.326;12.690;2023-02-26T11:37:49;0.70;99.90
16140;DHT22;8175;49.326;12.690;2023-02-26T11:40:37;0.70;99.90
16140;DHT22;8175;49.326;12.690;2023-02-26T11:43:07;1.00;99.90
16140;DHT22;8175;49.326;12.690;2023-02-26T11:45:38;1.50;99.90
16140;DHT22;8175;49.326;12.690;2023-02-26T11:48:12;1.30;99.90
16140;DHT22;8175;49.326;12.690;2023-02-26T11:50:46;0.70;99.90
16140;DHT22;8175;49.326;12.690;2023-02-26T11:53:19;0.50;99.90
16140;DHT22;8175;49.326;12.690;2023-02-26T11:55:51;0.90;99.90
16140;DHT22;8175;49.326;12.690;2023-02-26T11:58:20;1.30;99.90
16140;DHT22;8175;49.326;12.690;2023-02-26T12:00:47;3.60;99.90
16140;DHT22;8175;49.326;12.690;2023-02-26T12:03:27;4.40;99.90
16140;DHT22;8175;49.326;12.690;2023-02-26T12:05:54;4.00;99.90
16140;DHT22;8175;49.326;12.690;2023-02-26T12:08:26;3.80;99.90
16140;DHT22;8175;49.326;12.690;2023-02-26T12:13:30;5.50;99.90
16140;DHT22;8175;49.326;12.690;2023-02-26T12:16:16;6.20;99.90
16140;DHT22;8175;49.326;12.690;2023-02-26T12:21:55;5.50;99.90
16140;DHT22;8175;49.326;12.690;2023-02-26T12:25:00;4.10;99.90
16140;DHT22;8175;49.326;12.690;2023-02-26T12:30:41;2.70;99.90
16140;DHT22;8175;49.326;12.690;2023-02-26T12:39:19;3.70;99.90
16140;DHT22;8175;49.326;12.690;2023-02-26T12:50:40;7.70;94.60
16140;DHT22;8175;49.326;12.690;2023-02-26T13:00:51;2.80;99.90
16140;DHT22;8175;49.326;12.690;2023-02-26T13:03:42;2.30;99.90
16140;DHT22;8175;49.326;12.690;2023-02-26T13:14:39;0.70;99.90
16140;DHT22;8175;49.326;12.690;2023-02-26T13:20:22;1.10;99.90
16140;DHT22;8175;49.326;12.690;2023-02-26T13:23:02;1.80;99.90
16140;DHT22;8175;49.326;12.690;2023-02-26T13:25:54;3.40;99.90
16140;DHT22;8175;49.326;12.690;2023-02-26T13:30:58;3.60;99.90
16140;DHT22;8175;49.326;12.690;2023-02-26T13:33:30;3.80;99.90
16140;DHT22;8175;49.326;12.690;2023-02-26T13:35:58;4.30;99.90
16140;DHT22;8175;49.326;12.690;2023-02-26T13:38:39;4.20;99.90
16140;DHT22;8175;49.326;12.690;2023-02-26T13:41:16;5.10;99.90
16140;DHT22;8175;49.326;12.690;2023-02-26T13:50:04;0.90;99.90
16140;DHT22;8175;49.326;12.690;2023-02-26T13:52:33;0.10;99.90
16140;DHT22;8175;49.326;12.690;2023-02-26T13:55:02;0.10;99.90
16140;DHT22;8175;49.326;12.690;2023-02-26T14:02:54;0.00;99.90
16140;DHT22;8175;49.326;12.690;2023-02-26T14:10:42;2.50;99.90
16140;DHT22;8175;49.326;12.690;2023-02-26T14:13:21;1.20;99.90
16140;DHT22;8175;49.326;12.690;2023-02-26T14:18:30;-0.10;99.90
16140;DHT22;8175;49.326;12.690;2023-02-26T14:24:04;-0.20;99.90
16140;DHT22;8175;49.326;12.690;2023-02-26T14:26:33;0.60;99.90
16140;DHT22;8175;49.326;12.690;2023-02-26T14:34:20;0.30;99.90
16140;DHT22;8175;49.326;12.690;2023-02-26T14:36:56;0.10;99.90
16140;DHT22;8175;49.326;12.690;2023-02-26T14:41:48;-0.30;99.90
16140;DHT22;8175;49.326;12.690;2023-02-26T14:44:21;-0.30;99.90
16140;DHT22;8175;49.326;12.690;2023-02-26T14:46:49;0.20;99.90
16140;DHT22;8175;49.326;12.690;2023-02-26T14:49:31;0.90;99.90
16140;DHT22;8175;49.326;12.690;2023-02-26T14:55:02;1.30;99.90
16140;DHT22;8175;49.326;12.690;2023-02-26T15:11:41;0.10;99.90
16140;DHT22;8175;49.326;12.690;2023-02-26T15:14:36;0.20;99.90
16140;DHT22;8175;49.326;12.690;2023-02-26T15:17:06;0.40;99.90
16140;DHT22;8175;49.326;12.690;2023-02-26T15:19:38;0.20;99.90
16140;DHT22;8175;49.326;12.690;2023-02-26T15:24:47;-0.10;99.90
16140;DHT22;8175;49.326;12.690;2023-02-26T15:27:16;-0.50;99.90
16140;DHT22;8175;49.326;12.690;2023-02-26T15:29:42;-0.70;99.90
16140;DHT22;8175;49.326;12.690;2023-02-26T15:32:21;-0.70;99.90
16140;DHT22;8175;49.326;12.690;2023-02-26T15:34:58;-0.70;99.90
16140;DHT22;8175;49.326;12.690;2023-02-26T15:37:27;-0.80;99.90
16140;DHT22;8175;49.326;12.690;2023-02-26T15:39:53;-0.70;99.90
16140;DHT22;8175;49.326;12.690;2023-02-26T15:42:28;-0.80;99.90
16140;DHT22;8175;49.326;12.690;2023-02-26T15:44:56;-0.80;99.90
16140;DHT22;8175;49.326;12.690;2023-02-26T15:47:27;-0.80;99.90
16140;DHT22;8175;49.326;12.690;2023-02-26T15:49:53;-0.90;99.90
16140;DHT22;8175;49.326;12.690;2023-02-26T15:52:22;-0.90;99.90
16140;DHT22;8175;49.326;12.690;2023-02-26T15:54:51;-0.90;99.90
16140;DHT22;8175;49.326;12.690;2023-02-26T15:57:19;-0.90;99.90
16140;DHT22;8175;49.326;12.690;2023-02-26T15:59:51;-0.90;99.90
16140;DHT22;8175;49.326;12.690;2023-02-26T16:02:35;-1.00;99.90
16140;DHT22;8175;49.326;12.690;2023-02-26T16:05:02;-1.10;99.90
16140;DHT22;8175;49.326;12.690;2023-02-26T16:07:28;-1.10;99.90
16140;DHT22;8175;49.326;12.690;2023-02-26T16:09:54;-1.20;99.90
16140;DHT22;8175;49.326;12.690;2023-02-26T16:12:29;-1.20;99.90
16140;DHT22;8175;49.326;12.690;2023-02-26T16:15:04;-1.20;99.90
16140;DHT22;8175;49.326;12.690;2023-02-26T16:17:33;-1.20;99.90
16140;DHT22;8175;49.326;12.690;2023-02-26T16:20:03;-1.20;99.90
16140;DHT22;8175;49.326;12.690;2023-02-26T16:22:34;-1.20;99.90
16140;DHT22;8175;49.326;12.690;2023-02-26T16:25:07;-1.30;99.90
16140;DHT22;8175;49.326;12.690;2023-02-26T16:27:33;-1.40;99.90
16140;DHT22;8175;49.326;12.690;2023-02-26T16:30:02;-1.40;99.90
16140;DHT22;8175;49.326;12.690;2023-02-26T16:32:31;-1.40;99.90
16140;DHT22;8175;49.326;12.690;2023-02-26T16:35:11;-1.50;99.90
16140;DHT22;8175;49.326;12.690;2023-02-26T16:37:43;-1.60;99.90
16140;DHT22;8175;49.326;12.690;2023-02-26T16:40:26;-1.70;99.90
16140;DHT22;8175;49.326;12.690;2023-02-26T16:42:54;-1.70;99.90
16140;DHT22;8175;49.326;12.690;2023-02-26T16:48:26;-1.70;99.90
16140;DHT22;8175;49.326;12.690;2023-02-26T16:51:15;-1.70;99.90
16140;DHT22;8175;49.326;12.690;2023-02-26T16:56:19;-1.80;99.90
16140;DHT22;8175;49.326;12.690;2023-02-26T16:59:34;-1.80;99.90
16140;DHT22;8175;49.326;12.690;2023-02-26T17:01:45;-1.80;99.90
16140;DHT22;8175;49.326;12.690;2023-02-26T17:04:14;-1.80;99.90
16140;DHT22;8175;49.326;12.690;2023-02-26T17:06:41;-1.70;99.90
16140;DHT22;8175;49.326;12.690;2023-02-26T17:09:29;-1.80;99.90
16140;DHT22;8175;49.326;12.690;2023-02-26T17:12:22;-1.80;99.90
16140;DHT22;8175;49.326;12.690;2023-02-26T17:14:56;-1.80;99.90
16140;DHT22;8175;49.326;12.690;2023-02-26T17:17:22;-1.90;99.90
16140;DHT22;8175;49.326;12.690;2023-02-26T17:19:48;-1.80;99.90
16140;DHT22;8175;49.326;12.690;2023-02-26T17:22:16;-1.70;99.90
16140;DHT22;8175;49.326;12.690;2023-02-26T17:24:44;-1.60;99.90
16140;DHT22;8175;49.326;12.690;2023-02-26T17:27:29;-1.70;99.90
16140;DHT22;8175;49.326;12.690;2023-02-26T17:29:56;-1.70;99.90
16140;DHT22;8175;49.326;12.690;2023-02-26T17:32:25;-1.80;99.90
16140;DHT22;8175;49.326;12.690;2023-02-26T17:34:52;-1.80;99.90
16140;DHT22;8175;49.326;12.690;2023-02-26T17:37:18;-1.90;99.90
16140;DHT22;8175;49.326;12.690;2023-02-26T17:39:44;-2.00;99.90
16140;DHT22;8175;49.326;12.690;2023-02-26T17:42:18;-2.10;99.90
16140;DHT22;8175;49.326;12.690;2023-02-26T17:44:45;-2.10;99.90
16140;DHT22;8175;49.326;12.690;2023-02-26T17:47:17;-2.10;99.90
16140;DHT22;8175;49.326;12.690;2023-02-26T17:49:44;-2.30;99.90
16140;DHT22;8175;49.326;12.690;2023-02-26T17:52:11;-2.40;99.90
16140;DHT22;8175;49.326;12.690;2023-02-26T17:54:37;-2.40;99.90
16140;DHT22;8175;49.326;12.690;2023-02-26T17:57:03;-2.30;99.90
16140;DHT22;8175;49.326;12.690;2023-02-26T17:59:28;-2.10;99.90
16140;DHT22;8175;49.326;12.690;2023-02-26T18:01:54;-1.90;99.90
16140;DHT22;8175;49.326;12.690;2023-02-26T18:04:20;-1.80;99.90
16140;DHT22;8175;49.326;12.690;2023-02-26T18:06:47;-1.90;99.90
16140;DHT22;8175;49.326;12.690;2023-02-26T18:09:13;-1.90;99.90
16140;DHT22;8175;49.326;12.690;2023-02-26T18:11:39;-1.90;99.90
16140;DHT22;8175;49.326;12.690;2023-02-26T18:14:06;-2.00;99.90
16140;DHT22;8175;49.326;12.690;2023-02-26T18:16:36;-2.10;99.90
16140;DHT22;8175;49.326;12.690;2023-02-26T18:19:03;-2.00;99.90